sensor_id;sensor_type;location;lat;lon;timestamp;temperature;humidity
25092;DHT22;13082;52.374;4.946;2023-05-20T00:00:40;14.10;99.90
25092;DHT22;13082;52.374;4.946;2023-05-20T00:03:05;14.10;99.90
25092;DHT22;13082;52.374;4.946;2023-05-20T00:05:31;14.10;99.90
25092;DHT22;13082;52.374;4.946;2023-05-20T00:07:57;14.10;99.90
25092;DHT22;13082;52.374;4.946;2023-05-20T00:10:22;14.10;99.90
25092;DHT22;13082;52.374;4.946;2023-05-20T00:12:48;14.00;99.90
25092;DHT22;13082;52.374;4.946;2023-05-20T00:15:13;14.00;99.90
25092;DHT22;13082;52.374;4.946;2023-05-20T00:17:39;14.00;99.90
25092;DHT22;13082;52.374;4.946;2023-05-20T00:20:05;14.00;99.90
25092;DHT22;13082;52.374;4.946;2023-05-20T00:22:31;14.00;99.90
25092;DHT22;13082;52.374;4.946;2023-05-20T00:24:57;13.90;99.90
25092;DHT22;13082;52.374;4.946;2023-05-20T00:27:22;13.90;99.90
25092;DHT22;13082;52.374;4.946;2023-05-20T00:29:48;13.90;99.90
25092;DHT22;13082;52.374;4.946;2023-05-20T00:32:14;13.90;99.90
25092;DHT22;13082;52.374;4.946;2023-05-20T00:34:41;13.90;99.90
25092;DHT22;13082;52.374;4.946;2023-05-20T00:37:07;13.90;99.90
25092;DHT22;13082;52.374;4.946;2023-05-20T00:39:33;13.90;99.90
25092;DHT22;13082;52.374;4.946;2023-05-20T00:41:58;13.90;99.90
25092;DHT22;13082;52.374;4.946;2023-05-20T00:44:26;13.90;99.90
25092;DHT22;13082;52.374;4.946;2023-05-20T00:46:52;13.90;99.90
25092;DHT22;13082;52.374;4.946;2023-05-20T00:49:18;13.90;99.90
25092;DHT22;13082;52.374;4.946;2023-05-20T00:51:45;13.90;99.90
25092;DHT22;13082;52.374;4.946;2023-05-20T00:54:11;13.90;99.90
25092;DHT22;13082;52.374;4.946;2023-05-20T00:56:37;13.90;99.90
25092;DHT22;13082;52.374;4.946;2023-05-20T00:59:03;13.90;99.90
25092;DHT22;13082;52.374;4.946;2023-05-20T01:01:30;13.80;99.90
25092;DHT22;13082;52.374;4.946;2023-05-20T01:03:55;13.80;99.90
25092;DHT22;13082;52.374;4.946;2023-05-20T01:06:21;13.80;99.90
25092;DHT22;13082;52.374;4.946;2023-05-20T01:08:46;13.80;99.90
25092;DHT22;13082;52.374;4.946;2023-05-20T01:11:37;13.80;99.90
25092;DHT22;13082;52.374;4.946;2023-05-20T01:14:07;13.80;99.90
25092;DHT22;13082;52.374;4.946;2023-05-20T01:16:34;13.80;99.90
25092;DHT22;13082;52.374;4.946;2023-05-20T01:19:02;13.80;99.90
25092;DHT22;13082;52.374;4.946;2023-05-20T01:21:29;13.80;99.90
25092;DHT22;13082;52.374;4.946;2023-05-20T01:23:56;13.80;99.90
25092;DHT22;13082;52.374;4.946;2023-05-20T01:26:22;13.80;99.90
25092;DHT22;13082;52.374;4.946;2023-05-20T01:28:51;13.80;99.90
25092;DHT22;13082;52.374;4.946;2023-05-20T01:31:21;13.80;99.90
25092;DHT22;13082;52.374;4.946;2023-05-20T01:33:51;13.70;99.90
25092;DHT22;13082;52.374;4.946;2023-05-20T01:36:20;13.70;99.90
25092;DHT22;13082;52.374;4.946;2023-05-20T01:38:47;13.70;99.90
25092;DHT22;13082;52.374;4.946;2023-05-20T01:41:13;13.70;99.90
25092;DHT22;13082;52.374;4.946;2023-05-20T01:43:39;13.70;99.90
25092;DHT22;13082;52.374;4.946;2023-05-20T01:46:05;13.70;99.90
25092;DHT22;13082;52.374;4.946;2023-05-20T01:48:31;13.70;99.90
25092;DHT22;13082;52.374;4.946;2023-05-20T01:50:57;13.80;99.90
25092;DHT22;13082;52.374;4.946;2023-05-20T01:53:22;13.70;99.90
25092;DHT22;13082;52.374;4.946;2023-05-20T01:55:48;13.70;99.90
25092;DHT22;13082;52.374;4.946;2023-05-20T01:58:13;13.70;99.90
25092;DHT22;13082;52.374;4.946;2023-05-20T02:00:39;13.70;99.90
25092;DHT22;13082;52.374;4.946;2023-05-20T02:03:04;13.70;99.90
25092;DHT22;13082;52.374;4.946;2023-05-20T02:05:30;13.70;99.90
25092;DHT22;13082;52.374;4.946;2023-05-20T02:07:56;13.70;99.90
25092;DHT22;13082;52.374;4.946;2023-05-20T02:10:21;13.80;99.90
25092;DHT22;13082;52.374;4.946;2023-05-20T02:12:47;13.80;99.90
25092;DHT22;13082;52.374;4.946;2023-05-20T02:15:13;13.80;99.90
25092;DHT22;13082;52.374;4.946;2023-05-20T02:17:39;13.80;99.90
25092;DHT22;13082;52.374;4.946;2023-05-20T02:20:08;13.80;99.90
25092;DHT22;13082;52.374;4.946;2023-05-20T02:22:34;13.80;99.90
25092;DHT22;13082;52.374;4.946;2023-05-20T02:25:00;13.80;99.90
25092;DHT22;13082;52.374;4.946;2023-05-20T02:27:26;13.80;99.90
25092;DHT22;13082;52.374;4.946;2023-05-20T02:29:51;13.80;99.90
25092;DHT22;13082;52.374;4.946;2023-05-20T02:32:17;13.80;99.90
25092;DHT22;13082;52.374;4.946;2023-05-20T02:34:44;13.70;99.90
25092;DHT22;13082;52.374;4.946;2023-05-20T02:37:10;13.70;99.90
25092;DHT22;13082;52.374;4.946;2023-05-20T02:39:36;13.70;99.90
25092;DHT22;13082;52.374;4.946;2023-05-20T02:42:01;13.70;99.90
25092;DHT22;13082;52.374;4.946;2023-05-20T02:44:29;13.70;99.90
25092;DHT22;13082;52.374;4.946;2023-05-20T02:46:54;13.70;99.90
25092;DHT22;13082;52.374;4.946;2023-05-20T02:49:20;13.60;99.90
25092;DHT22;13082;52.374;4.946;2023-05-20T02:51:46;13.60;99.90
25092;DHT22;13082;52.374;4.946;2023-05-20T02:54:11;13.70;99.90
25092;DHT22;13082;52.374;4.946;2023-05-20T02:56:37;13.70;99.90
25092;DHT22;13082;52.374;4.946;2023-05-20T02:59:02;13.70;99.90
25092;DHT22;13082;52.374;4.946;2023-05-20T03:01:29;13.70;99.90
25092;DHT22;13082;52.374;4.946;2023-05-20T03:03:54;13.70;99.90
25092;DHT22;13082;52.374;4.946;2023-05-20T03:06:20;13.80;99.90
25092;DHT22;13082;52.374;4.946;2023-05-20T03:08:46;13.80;99.90
25092;DHT22;13082;52.374;4.946;2023-05-20T03:11:12;13.80;99.90
25092;DHT22;13082;52.374;4.946;2023-05-20T03:13:37;13.80;99.90
25092;DHT22;13082;52.374;4.946;2023-05-20T03:16:03;13.80;99.90
25092;DHT22;13082;52.374;4.946;2023-05-20T03:18:29;13.80;99.90
25092;DHT22;13082;52.374;4.946;2023-05-20T03:20:55;13.80;99.90
25092;DHT22;13082;52.374;4.946;2023-05-20T03:23:20;13.80;99.90
25092;DHT22;13082;52.374;4.946;2023-05-20T03:25:47;13.80;99.90
25092;DHT22;13082;52.374;4.946;2023-05-20T03:28:12;13.80;99.90
25092;DHT22;13082;52.374;4.946;2023-05-20T03:30:38;13.80;99.90
25092;DHT22;13082;52.374;4.946;2023-05-20T03:33:04;13.80;99.90
25092;DHT22;13082;52.374;4.946;2023-05-20T03:35:30;13.80;99.90
25092;DHT22;13082;52.374;4.946;2023-05-20T03:37:56;13.80;99.90
25092;DHT22;13082;52.374;4.946;2023-05-20T03:40:23;13.80;99.90
25092;DHT22;13082;52.374;4.946;2023-05-20T03:42:48;13.70;99.90
25092;DHT22;13082;52.374;4.946;2023-05-20T03:45:16;13.70;99.90
25092;DHT22;13082;52.374;4.946;2023-05-20T03:47:42;13.70;99.90
25092;DHT22;13082;52.374;4.946;2023-05-20T03:50:08;13.70;99.90
25092;DHT22;13082;52.374;4.946;2023-05-20T03:52:34;13.60;99.90
25092;DHT22;13082;52.374;4.946;2023-05-20T03:54:59;13.60;99.90
25092;DHT22;13082;52.374;4.946;2023-05-20T03:57:25;13.60;99.90
25092;DHT22;13082;52.374;4.946;2023-05-20T03:59:50;13.60;99.90
25092;DHT22;13082;52.374;4.946;2023-05-20T04:02:16;13.60;99.90
25092;DHT22;13082;52.374;4.946;2023-05-20T04:04:42;13.50;99.90
25092;DHT22;13082;52.374;4.946;2023-05-20T04:07:08;13.50;99.90
25092;DHT22;13082;52.374;4.946;2023-05-20T04:09:34;13.60;99.90
25092;DHT22;13082;52.374;4.946;2023-05-20T04:12:00;13.60;99.90
25092;DHT22;13082;52.374;4.946;2023-05-20T04:14:26;13.60;99.90
25092;DHT22;13082;52.374;4.946;2023-05-20T04:16:51;13.60;99.90
25092;DHT22;13082;52.374;4.946;2023-05-20T04:19:17;13.60;99.90
25092;DHT22;13082;52.374;4.946;2023-05-20T04:21:45;13.60;99.90
25092;DHT22;13082;52.374;4.946;2023-05-20T04:24:11;13.60;99.90
25092;DHT22;13082;52.374;4.946;2023-05-20T04:26:37;13.50;99.90
25092;DHT22;13082;52.374;4.946;2023-05-20T04:29:03;13.50;99.90
25092;DHT22;13082;52.374;4.946;2023-05-20T04:31:29;13.60;99.90
25092;DHT22;13082;52.374;4.946;2023-05-20T04:33:55;13.60;99.90
25092;DHT22;13082;52.374;4.946;2023-05-20T04:36:21;13.60;99.90
25092;DHT22;13082;52.374;4.946;2023-05-20T04:38:47;13.60;99.90
25092;DHT22;13082;52.374;4.946;2023-05-20T04:41:13;13.60;99.90
25092;DHT22;13082;52.374;4.946;2023-05-20T04:43:40;13.50;99.90
25092;DHT22;13082;52.374;4.946;2023-05-20T04:46:07;13.50;99.90
25092;DHT22;13082;52.374;4.946;2023-05-20T04:48:33;13.60;99.90
25092;DHT22;13082;52.374;4.946;2023-05-20T04:50:58;13.60;99.90
25092;DHT22;13082;52.374;4.946;2023-05-20T04:53:24;13.60;99.90
25092;DHT22;13082;52.374;4.946;2023-05-20T04:55:53;13.60;99.90
25092;DHT22;13082;52.374;4.946;2023-05-20T04:58:21;13.60;99.90
25092;DHT22;13082;52.374;4.946;2023-05-20T05:00:49;13.60;99.90
25092;DHT22;13082;52.374;4.946;2023-05-20T05:03:14;13.50;99.90
25092;DHT22;13082;52.374;4.946;2023-05-20T05:05:40;13.50;99.90
25092;DHT22;13082;52.374;4.946;2023-05-20T05:08:07;13.50;99.90
25092;DHT22;13082;52.374;4.946;2023-05-20T05:10:34;13.50;99.90
25092;DHT22;13082;52.374;4.946;2023-05-20T05:13:00;13.50;99.90
25092;DHT22;13082;52.374;4.946;2023-05-20T05:15:26;13.50;99.90
25092;DHT22;13082;52.374;4.946;2023-05-20T05:17:52;13.50;99.90
25092;DHT22;13082;52.374;4.946;2023-05-20T05:20:18;13.50;99.90
25092;DHT22;13082;52.374;4.946;2023-05-20T05:22:44;13.50;99.90
25092;DHT22;13082;52.374;4.946;2023-05-20T05:25:10;13.50;99.90
25092;DHT22;13082;52.374;4.946;2023-05-20T05:27:36;13.50;99.90
25092;DHT22;13082;52.374;4.946;2023-05-20T05:30:03;13.50;99.90
25092;DHT22;13082;52.374;4.946;2023-05-20T05:32:29;13.60;99.90
25092;DHT22;13082;52.374;4.946;2023-05-20T05:34:54;13.50;99.90
25092;DHT22;13082;52.374;4.946;2023-05-20T05:37:20;13.60;99.90
25092;DHT22;13082;52.374;4.946;2023-05-20T05:39:46;13.70;99.90
25092;DHT22;13082;52.374;4.946;2023-05-20T05:42:12;13.70;99.90
25092;DHT22;13082;52.374;4.946;2023-05-20T05:44:37;13.80;99.90
25092;DHT22;13082;52.374;4.946;2023-05-20T05:47:03;13.80;99.90
25092;DHT22;13082;52.374;4.946;2023-05-20T05:49:30;13.80;99.90
25092;DHT22;13082;52.374;4.946;2023-05-20T05:51:55;13.80;99.90
25092;DHT22;13082;52.374;4.946;2023-05-20T05:54:21;13.80;99.90
25092;DHT22;13082;52.374;4.946;2023-05-20T05:56:47;13.80;99.90
25092;DHT22;13082;52.374;4.946;2023-05-20T05:59:12;13.80;99.90
25092;DHT22;13082;52.374;4.946;2023-05-20T06:01:38;13.90;99.90
25092;DHT22;13082;52.374;4.946;2023-05-20T06:04:03;14.00;99.90
25092;DHT22;13082;52.374;4.946;2023-05-20T06:06:30;14.00;99.90
25092;DHT22;13082;52.374;4.946;2023-05-20T06:08:56;14.00;99.90
25092;DHT22;13082;52.374;4.946;2023-05-20T06:11:22;14.10;99.90
25092;DHT22;13082;52.374;4.946;2023-05-20T06:13:48;14.10;99.90
25092;DHT22;13082;52.374;4.946;2023-05-20T06:16:15;14.10;99.90
25092;DHT22;13082;52.374;4.946;2023-05-20T06:18:41;14.20;99.90
25092;DHT22;13082;52.374;4.946;2023-05-20T06:21:06;14.20;99.90
25092;DHT22;13082;52.374;4.946;2023-05-20T06:23:32;14.30;99.90
25092;DHT22;13082;52.374;4.946;2023-05-20T06:25:58;14.40;99.90
25092;DHT22;13082;52.374;4.946;2023-05-20T06:28:25;14.50;99.90
25092;DHT22;13082;52.374;4.946;2023-05-20T06:30:50;14.60;99.90
25092;DHT22;13082;52.374;4.946;2023-05-20T06:33:18;14.70;99.90
25092;DHT22;13082;52.374;4.946;2023-05-20T06:35:44;14.70;99.90
25092;DHT22;13082;52.374;4.946;2023-05-20T06:38:10;14.80;99.90
25092;DHT22;13082;52.374;4.946;2023-05-20T06:40:35;14.80;99.90
25092;DHT22;13082;52.374;4.946;2023-05-20T06:43:01;14.90;99.90
25092;DHT22;13082;52.374;4.946;2023-05-20T06:45:27;15.00;99.90
25092;DHT22;13082;52.374;4.946;2023-05-20T06:47:52;15.00;99.90
25092;DHT22;13082;52.374;4.946;2023-05-20T06:50:19;15.10;99.90
25092;DHT22;13082;52.374;4.946;2023-05-20T06:52:44;15.10;99.90
25092;DHT22;13082;52.374;4.946;2023-05-20T06:55:10;15.20;99.90
25092;DHT22;13082;52.374;4.946;2023-05-20T06:57:36;15.20;99.90
25092;DHT22;13082;52.374;4.946;2023-05-20T07:00:03;15.10;99.90
25092;DHT22;13082;52.374;4.946;2023-05-20T07:02:31;15.00;99.90
25092;DHT22;13082;52.374;4.946;2023-05-20T07:04:57;14.90;99.90
25092;DHT22;13082;52.374;4.946;2023-05-20T07:07:23;14.90;99.90
25092;DHT22;13082;52.374;4.946;2023-05-20T07:09:49;14.90;99.90
25092;DHT22;13082;52.374;4.946;2023-05-20T07:12:14;15.00;99.90
25092;DHT22;13082;52.374;4.946;2023-05-20T07:14:41;15.10;99.90
25092;DHT22;13082;52.374;4.946;2023-05-20T07:17:06;15.20;99.90
25092;DHT22;13082;52.374;4.946;2023-05-20T07:19:32;15.20;99.90
25092;DHT22;13082;52.374;4.946;2023-05-20T07:21:58;15.40;99.90
25092;DHT22;13082;52.374;4.946;2023-05-20T07:24:24;15.50;99.90
25092;DHT22;13082;52.374;4.946;2023-05-20T07:26:49;15.60;99.90
25092;DHT22;13082;52.374;4.946;2023-05-20T07:29:15;15.60;99.90
25092;DHT22;13082;52.374;4.946;2023-05-20T07:31:41;15.70;99.90
25092;DHT22;13082;52.374;4.946;2023-05-20T07:34:06;15.70;99.90
25092;DHT22;13082;52.374;4.946;2023-05-20T07:36:32;15.80;99.90
25092;DHT22;13082;52.374;4.946;2023-05-20T07:38:57;15.90;99.90
25092;DHT22;13082;52.374;4.946;2023-05-20T07:41:24;15.90;99.90
25092;DHT22;13082;52.374;4.946;2023-05-20T07:43:50;16.00;99.90
25092;DHT22;13082;52.374;4.946;2023-05-20T07:46:16;16.10;99.90
25092;DHT22;13082;52.374;4.946;2023-05-20T07:48:42;16.10;99.90
25092;DHT22;13082;52.374;4.946;2023-05-20T07:51:09;16.20;99.90
25092;DHT22;13082;52.374;4.946;2023-05-20T07:53:36;16.20;99.90
25092;DHT22;13082;52.374;4.946;2023-05-20T07:56:01;16.30;99.90
25092;DHT22;13082;52.374;4.946;2023-05-20T07:58:27;16.40;99.90
25092;DHT22;13082;52.374;4.946;2023-05-20T08:00:53;16.50;99.90
25092;DHT22;13082;52.374;4.946;2023-05-20T08:03:18;16.50;99.90
25092;DHT22;13082;52.374;4.946;2023-05-20T08:05:46;16.50;99.90
25092;DHT22;13082;52.374;4.946;2023-05-20T08:08:12;16.50;99.90
25092;DHT22;13082;52.374;4.946;2023-05-20T08:10:37;16.50;99.90
25092;DHT22;13082;52.374;4.946;2023-05-20T08:13:03;16.60;99.90
25092;DHT22;13082;52.374;4.946;2023-05-20T08:15:29;16.70;99.90
25092;DHT22;13082;52.374;4.946;2023-05-20T08:17:54;16.70;99.90
25092;DHT22;13082;52.374;4.946;2023-05-20T08:20:20;16.80;99.90
25092;DHT22;13082;52.374;4.946;2023-05-20T08:22:46;16.80;99.90
25092;DHT22;13082;52.374;4.946;2023-05-20T08:25:12;16.90;99.90
25092;DHT22;13082;52.374;4.946;2023-05-20T08:27:38;17.00;99.90
25092;DHT22;13082;52.374;4.946;2023-05-20T08:30:04;17.00;99.90
25092;DHT22;13082;52.374;4.946;2023-05-20T08:32:32;17.00;99.90
25092;DHT22;13082;52.374;4.946;2023-05-20T08:34:58;17.10;99.90
25092;DHT22;13082;52.374;4.946;2023-05-20T08:37:26;17.20;99.90
25092;DHT22;13082;52.374;4.946;2023-05-20T08:39:51;17.30;99.90
25092;DHT22;13082;52.374;4.946;2023-05-20T08:42:21;17.30;99.90
25092;DHT22;13082;52.374;4.946;2023-05-20T08:44:47;17.40;99.90
25092;DHT22;13082;52.374;4.946;2023-05-20T08:47:14;17.40;99.90
25092;DHT22;13082;52.374;4.946;2023-05-20T08:49:39;17.50;99.90
25092;DHT22;13082;52.374;4.946;2023-05-20T08:52:05;17.50;99.90
25092;DHT22;13082;52.374;4.946;2023-05-20T08:54:52;17.60;99.90
25092;DHT22;13082;52.374;4.946;2023-05-20T08:57:18;17.60;99.90
25092;DHT22;13082;52.374;4.946;2023-05-20T08:59:46;17.70;99.90
25092;DHT22;13082;52.374;4.946;2023-05-20T09:02:12;17.80;99.90
25092;DHT22;13082;52.374;4.946;2023-05-20T09:04:38;17.90;99.90
25092;DHT22;13082;52.374;4.946;2023-05-20T09:07:04;17.90;99.90
25092;DHT22;13082;52.374;4.946;2023-05-20T09:09:31;18.00;99.90
25092;DHT22;13082;52.374;4.946;2023-05-20T09:12:01;18.00;99.90
25092;DHT22;13082;52.374;4.946;2023-05-20T09:14:28;18.10;99.90
25092;DHT22;13082;52.374;4.946;2023-05-20T09:16:53;18.20;99.90
25092;DHT22;13082;52.374;4.946;2023-05-20T09:19:21;18.20;99.90
25092;DHT22;13082;52.374;4.946;2023-05-20T09:21:47;18.30;99.90
25092;DHT22;13082;52.374;4.946;2023-05-20T09:24:13;18.30;99.90
25092;DHT22;13082;52.374;4.946;2023-05-20T09:26:38;18.30;99.90
25092;DHT22;13082;52.374;4.946;2023-05-20T09:29:04;18.30;99.90
25092;DHT22;13082;52.374;4.946;2023-05-20T09:31:30;18.30;99.90
25092;DHT22;13082;52.374;4.946;2023-05-20T09:33:59;18.30;99.90
25092;DHT22;13082;52.374;4.946;2023-05-20T09:36:28;18.40;99.90
25092;DHT22;13082;52.374;4.946;2023-05-20T09:38:57;18.40;99.90
25092;DHT22;13082;52.374;4.946;2023-05-20T09:41:30;18.50;99.90
25092;DHT22;13082;52.374;4.946;2023-05-20T09:43:58;18.50;99.90
25092;DHT22;13082;52.374;4.946;2023-05-20T09:46:25;18.50;99.90
25092;DHT22;13082;52.374;4.946;2023-05-20T09:48:51;18.50;99.90
25092;DHT22;13082;52.374;4.946;2023-05-20T09:51:17;18.60;99.90
25092;DHT22;13082;52.374;4.946;2023-05-20T09:53:43;18.60;99.90
25092;DHT22;13082;52.374;4.946;2023-05-20T09:56:09;18.60;99.90
25092;DHT22;13082;52.374;4.946;2023-05-20T09:58:35;18.70;99.90
25092;DHT22;13082;52.374;4.946;2023-05-20T10:01:02;18.70;99.90
25092;DHT22;13082;52.374;4.946;2023-05-20T10:03:28;18.70;99.90
25092;DHT22;13082;52.374;4.946;2023-05-20T10:09:04;18.80;99.90
25092;DHT22;13082;52.374;4.946;2023-05-20T10:16:50;18.90;99.90
25092;DHT22;13082;52.374;4.946;2023-05-20T10:19:28;19.00;99.90
25092;DHT22;13082;52.374;4.946;2023-05-20T10:22:02;19.00;99.90
25092;DHT22;13082;52.374;4.946;2023-05-20T10:24:32;19.10;99.90
25092;DHT22;13082;52.374;4.946;2023-05-20T10:27:00;19.10;99.90
25092;DHT22;13082;52.374;4.946;2023-05-20T10:29:27;19.20;99.90
25092;DHT22;13082;52.374;4.946;2023-05-20T10:31:53;19.20;99.90
25092;DHT22;13082;52.374;4.946;2023-05-20T10:34:21;19.20;99.90
25092;DHT22;13082;52.374;4.946;2023-05-20T10:36:57;19.20;99.90
25092;DHT22;13082;52.374;4.946;2023-05-20T10:39:31;19.30;99.90
25092;DHT22;13082;52.374;4.946;2023-05-20T10:42:07;19.40;99.90
25092;DHT22;13082;52.374;4.946;2023-05-20T10:44:43;19.40;99.90
25092;DHT22;13082;52.374;4.946;2023-05-20T10:47:09;19.40;99.90
25092;DHT22;13082;52.374;4.946;2023-05-20T10:49:38;19.50;99.90
25092;DHT22;13082;52.374;4.946;2023-05-20T10:52:07;19.50;99.90
25092;DHT22;13082;52.374;4.946;2023-05-20T10:54:43;19.60;99.90
25092;DHT22;13082;52.374;4.946;2023-05-20T10:57:10;19.50;99.90
25092;DHT22;13082;52.374;4.946;2023-05-20T10:59:36;19.60;99.90
25092;DHT22;13082;52.374;4.946;2023-05-20T11:02:02;19.80;99.90
25092;DHT22;13082;52.374;4.946;2023-05-20T11:04:28;19.90;99.90
25092;DHT22;13082;52.374;4.946;2023-05-20T11:06:54;19.90;99.90
25092;DHT22;13082;52.374;4.946;2023-05-20T11:09:21;19.90;99.90
25092;DHT22;13082;52.374;4.946;2023-05-20T11:11:47;19.90;99.90
25092;DHT22;13082;52.374;4.946;2023-05-20T11:14:13;20.00;99.90
25092;DHT22;13082;52.374;4.946;2023-05-20T11:16:40;20.10;99.90
25092;DHT22;13082;52.374;4.946;2023-05-20T11:19:07;20.10;99.90
25092;DHT22;13082;52.374;4.946;2023-05-20T11:21:33;20.10;99.90
25092;DHT22;13082;52.374;4.946;2023-05-20T11:23:59;20.10;99.90
25092;DHT22;13082;52.374;4.946;2023-05-20T11:26:25;20.10;99.90
25092;DHT22;13082;52.374;4.946;2023-05-20T11:28:51;20.20;99.90
25092;DHT22;13082;52.374;4.946;2023-05-20T11:31:17;20.20;99.90
25092;DHT22;13082;52.374;4.946;2023-05-20T11:33:43;20.20;99.90
25092;DHT22;13082;52.374;4.946;2023-05-20T11:36:09;20.30;99.90
25092;DHT22;13082;52.374;4.946;2023-05-20T11:38:35;20.30;99.90
25092;DHT22;13082;52.374;4.946;2023-05-20T11:41:01;20.30;99.90
25092;DHT22;13082;52.374;4.946;2023-05-20T11:43:27;20.30;99.90
25092;DHT22;13082;52.374;4.946;2023-05-20T11:45:57;20.40;99.90
25092;DHT22;13082;52.374;4.946;2023-05-20T11:48:25;20.40;99.90
25092;DHT22;13082;52.374;4.946;2023-05-20T11:50:53;20.30;99.90
25092;DHT22;13082;52.374;4.946;2023-05-20T11:53:20;20.20;99.90
25092;DHT22;13082;52.374;4.946;2023-05-20T11:55:57;20.10;99.90
25092;DHT22;13082;52.374;4.946;2023-05-20T11:58:28;19.90;99.90
25092;DHT22;13082;52.374;4.946;2023-05-20T12:00:54;19.80;99.90
25092;DHT22;13082;52.374;4.946;2023-05-20T12:03:19;19.70;99.90
25092;DHT22;13082;52.374;4.946;2023-05-20T12:05:46;19.80;99.90
25092;DHT22;13082;52.374;4.946;2023-05-20T12:08:15;19.90;99.90
25092;DHT22;13082;52.374;4.946;2023-05-20T12:10:41;20.00;99.90
25092;DHT22;13082;52.374;4.946;2023-05-20T12:13:07;20.10;99.90
25092;DHT22;13082;52.374;4.946;2023-05-20T12:15:38;20.10;99.90
25092;DHT22;13082;52.374;4.946;2023-05-20T12:18:04;20.20;99.90
25092;DHT22;13082;52.374;4.946;2023-05-20T12:20:30;20.20;99.90
25092;DHT22;13082;52.374;4.946;2023-05-20T12:22:58;20.10;99.90
25092;DHT22;13082;52.374;4.946;2023-05-20T12:25:25;19.90;99.90
25092;DHT22;13082;52.374;4.946;2023-05-20T12:27:51;19.80;99.90
25092;DHT22;13082;52.374;4.946;2023-05-20T12:30:18;19.80;99.90
25092;DHT22;13082;52.374;4.946;2023-05-20T12:32:45;19.90;99.90
25092;DHT22;13082;52.374;4.946;2023-05-20T12:35:11;19.80;99.90
25092;DHT22;13082;52.374;4.946;2023-05-20T12:37:38;19.80;99.90
25092;DHT22;13082;52.374;4.946;2023-05-20T12:40:06;19.70;99.90
25092;DHT22;13082;52.374;4.946;2023-05-20T12:42:36;19.70;99.90
25092;DHT22;13082;52.374;4.946;2023-05-20T12:45:02;19.90;99.90
25092;DHT22;13082;52.374;4.946;2023-05-20T12:47:29;20.00;99.90
25092;DHT22;13082;52.374;4.946;2023-05-20T12:49:55;20.10;99.90
25092;DHT22;13082;52.374;4.946;2023-05-20T12:52:20;20.00;99.90
25092;DHT22;13082;52.374;4.946;2023-05-20T12:54:46;19.90;99.90
25092;DHT22;13082;52.374;4.946;2023-05-20T12:57:11;19.80;99.90
25092;DHT22;13082;52.374;4.946;2023-05-20T12:59:37;19.80;99.90
25092;DHT22;13082;52.374;4.946;2023-05-20T13:02:03;19.80;99.90
25092;DHT22;13082;52.374;4.946;2023-05-20T13:04:28;19.70;99.90
25092;DHT22;13082;52.374;4.946;2023-05-20T13:06:54;19.70;99.90
25092;DHT22;13082;52.374;4.946;2023-05-20T13:09:20;19.60;99.90
25092;DHT22;13082;52.374;4.946;2023-05-20T13:11:45;19.60;99.90
25092;DHT22;13082;52.374;4.946;2023-05-20T13:14:11;19.70;99.90
25092;DHT22;13082;52.374;4.946;2023-05-20T13:16:37;19.80;99.90
25092;DHT22;13082;52.374;4.946;2023-05-20T13:19:03;19.80;99.90
25092;DHT22;13082;52.374;4.946;2023-05-20T13:21:28;19.70;99.90
25092;DHT22;13082;52.374;4.946;2023-05-20T13:23:54;19.60;99.90
25092;DHT22;13082;52.374;4.946;2023-05-20T13:26:20;19.60;99.90
25092;DHT22;13082;52.374;4.946;2023-05-20T13:28:46;19.60;99.90
25092;DHT22;13082;52.374;4.946;2023-05-20T13:31:11;19.60;99.90
25092;DHT22;13082;52.374;4.946;2023-05-20T13:33:37;19.60;99.90
25092;DHT22;13082;52.374;4.946;2023-05-20T13:36:03;19.60;99.90
25092;DHT22;13082;52.374;4.946;2023-05-20T13:38:28;19.70;99.90
25092;DHT22;13082;52.374;4.946;2023-05-20T13:40:54;19.70;99.90
25092;DHT22;13082;52.374;4.946;2023-05-20T13:43:24;19.70;99.90
25092;DHT22;13082;52.374;4.946;2023-05-20T13:45:50;19.70;99.90
25092;DHT22;13082;52.374;4.946;2023-05-20T13:48:16;19.80;99.90
25092;DHT22;13082;52.374;4.946;2023-05-20T13:50:41;19.80;99.90
25092;DHT22;13082;52.374;4.946;2023-05-20T13:53:07;19.90;99.90
25092;DHT22;13082;52.374;4.946;2023-05-20T13:55:37;20.00;99.90
25092;DHT22;13082;52.374;4.946;2023-05-20T13:58:02;19.90;99.90
25092;DHT22;13082;52.374;4.946;2023-05-20T14:00:30;19.80;99.90
25092;DHT22;13082;52.374;4.946;2023-05-20T14:02:56;19.70;99.90
25092;DHT22;13082;52.374;4.946;2023-05-20T14:05:22;19.60;99.90
25092;DHT22;13082;52.374;4.946;2023-05-20T14:07:47;19.60;99.90
25092;DHT22;13082;52.374;4.946;2023-05-20T14:10:13;19.50;99.90
25092;DHT22;13082;52.374;4.946;2023-05-20T14:12:39;19.40;99.90
25092;DHT22;13082;52.374;4.946;2023-05-20T14:15:05;19.30;99.90
25092;DHT22;13082;52.374;4.946;2023-05-20T14:17:31;19.30;99.90
25092;DHT22;13082;52.374;4.946;2023-05-20T14:19:56;19.30;99.90
25092;DHT22;13082;52.374;4.946;2023-05-20T14:22:22;19.20;99.90
25092;DHT22;13082;52.374;4.946;2023-05-20T14:24:48;19.20;99.90
25092;DHT22;13082;52.374;4.946;2023-05-20T14:27:14;19.20;99.90
25092;DHT22;13082;52.374;4.946;2023-05-20T14:29:39;19.20;99.90
25092;DHT22;13082;52.374;4.946;2023-05-20T14:32:05;19.20;99.90
25092;DHT22;13082;52.374;4.946;2023-05-20T14:34:31;19.30;99.90
25092;DHT22;13082;52.374;4.946;2023-05-20T14:36:56;19.30;99.90
25092;DHT22;13082;52.374;4.946;2023-05-20T14:39:22;19.30;99.90
25092;DHT22;13082;52.374;4.946;2023-05-20T14:41:48;19.30;99.90
25092;DHT22;13082;52.374;4.946;2023-05-20T14:44:13;19.20;99.90
25092;DHT22;13082;52.374;4.946;2023-05-20T14:46:39;19.20;99.90
25092;DHT22;13082;52.374;4.946;2023-05-20T14:49:04;19.30;99.90
25092;DHT22;13082;52.374;4.946;2023-05-20T14:51:30;19.30;99.90
25092;DHT22;13082;52.374;4.946;2023-05-20T14:53:56;19.30;99.90
25092;DHT22;13082;52.374;4.946;2023-05-20T14:56:21;19.30;99.90
25092;DHT22;13082;52.374;4.946;2023-05-20T14:58:47;19.30;99.90
25092;DHT22;13082;52.374;4.946;2023-05-20T15:01:13;19.40;99.90
25092;DHT22;13082;52.374;4.946;2023-05-20T15:03:38;19.50;99.90
25092;DHT22;13082;52.374;4.946;2023-05-20T15:06:04;19.60;99.90
25092;DHT22;13082;52.374;4.946;2023-05-20T15:08:30;19.60;99.90
25092;DHT22;13082;52.374;4.946;2023-05-20T15:10:56;19.60;99.90
25092;DHT22;13082;52.374;4.946;2023-05-20T15:13:22;19.70;99.90
25092;DHT22;13082;52.374;4.946;2023-05-20T15:15:47;19.80;99.90
25092;DHT22;13082;52.374;4.946;2023-05-20T15:18:13;19.80;99.90
25092;DHT22;13082;52.374;4.946;2023-05-20T15:20:38;19.80;99.90
25092;DHT22;13082;52.374;4.946;2023-05-20T15:23:04;19.70;99.90
25092;DHT22;13082;52.374;4.946;2023-05-20T15:25:30;19.70;99.90
25092;DHT22;13082;52.374;4.946;2023-05-20T15:27:55;19.60;99.90
25092;DHT22;13082;52.374;4.946;2023-05-20T15:30:21;19.60;99.90
25092;DHT22;13082;52.374;4.946;2023-05-20T15:32:47;19.50;99.90